createdAt,value
2022-09-15T00:00:11.454Z,4.18
2022-09-15T00:02:38.411Z,4.25
2022-09-15T00:05:05.341Z,3.60
2022-09-15T00:07:31.831Z,3.92
2022-09-15T00:09:58.327Z,4.00
2022-09-15T00:12:25.339Z,4.05
2022-09-15T00:14:51.866Z,3.63
2022-09-15T00:17:18.507Z,3.70
2022-09-15T00:19:45.388Z,3.83
2022-09-15T00:22:12.390Z,4.35
2022-09-15T00:24:39.071Z,3.67
2022-09-15T00:27:05.661Z,3.78
2022-09-15T00:29:32.149Z,3.72
2022-09-15T00:31:58.953Z,3.97
2022-09-15T00:34:25.452Z,4.25
2022-09-15T00:36:51.935Z,4.18
2022-09-15T00:39:18.685Z,3.80
2022-09-15T00:41:45.196Z,4.10
2022-09-15T00:44:23.549Z,3.72
2022-09-15T00:47:15.343Z,3.38
2022-09-15T00:49:41.336Z,3.15
2022-09-15T00:52:12.865Z,2.85
2022-09-15T00:54:56.265Z,2.80
2022-09-15T00:57:32.271Z,3.35
2022-09-15T01:00:02.673Z,3.40
2022-09-15T01:02:33.586Z,3.15
2022-09-15T01:05:03.020Z,2.97
2022-09-15T01:07:39.254Z,2.83
2022-09-15T01:10:13.123Z,2.92
2022-09-15T01:12:41.601Z,2.90
2022-09-15T01:15:08.939Z,3.00
2022-09-15T01:17:53.920Z,3.38
2022-09-15T01:20:29.447Z,3.17
2022-09-15T01:23:13.020Z,3.03
2022-09-15T01:25:51.589Z,2.60
2022-09-15T01:28:39.971Z,2.08
2022-09-15T01:31:24.383Z,2.70
2022-09-15T01:34:06.956Z,2.33
2022-09-15T01:36:49.389Z,2.72
2022-09-15T01:39:21.663Z,2.05
2022-09-15T01:41:53.602Z,2.33
2022-09-15T01:44:26.283Z,2.22
2022-09-15T01:46:57.176Z,2.00
2022-09-15T01:49:28.087Z,1.88
2022-09-15T01:51:55.110Z,2.88
2022-09-15T01:54:28.334Z,1.92
2022-09-15T01:56:54.850Z,1.95
2022-09-15T01:59:21.462Z,2.80
2022-09-15T02:01:57.436Z,2.05
2022-09-15T02:04:41.315Z,2.20
2022-09-15T02:07:35.537Z,1.65
2022-09-15T02:10:05.261Z,1.63
2022-09-15T02:12:58.300Z,1.27
2022-09-15T02:15:29.130Z,2.03
2022-09-15T02:17:58.096Z,2.15
2022-09-15T02:20:40.770Z,1.83
2022-09-15T02:23:20.538Z,1.85
2022-09-15T02:25:55.686Z,1.67
2022-09-15T02:28:28.642Z,1.70
2022-09-15T02:30:58.685Z,1.95
2022-09-15T02:33:32.350Z,1.88
2022-09-15T02:36:00.100Z,1.92
2022-09-15T02:38:30.166Z,1.75
2022-09-15T02:40:57.115Z,1.88
2022-09-15T02:43:23.690Z,2.00
2022-09-15T02:45:50.845Z,1.80
2022-09-15T02:48:17.725Z,1.67
2022-09-15T02:50:44.195Z,2.10
2022-09-15T02:53:10.717Z,2.00
2022-09-15T02:55:37.206Z,2.03
2022-09-15T02:58:03.956Z,2.00
2022-09-15T03:00:31.159Z,2.00
2022-09-15T03:02:58.391Z,1.75
2022-09-15T03:05:29.255Z,1.88
2022-09-15T03:07:56.832Z,1.70
2022-09-15T03:10:24.773Z,1.70
2022-09-15T03:12:52.992Z,2.00
2022-09-15T03:15:22.305Z,1.80
2022-09-15T03:17:49.472Z,2.00
2022-09-15T03:20:20.302Z,2.03
2022-09-15T03:22:47.801Z,1.88
2022-09-15T03:25:14.454Z,2.17
2022-09-15T03:27:40.997Z,2.00
2022-09-15T03:30:08.346Z,2.03
2022-09-15T03:32:35.205Z,2.20
2022-09-15T03:35:01.793Z,2.30
2022-09-15T03:37:28.542Z,2.40
2022-09-15T03:39:55.061Z,2.30
2022-09-15T03:42:21.865Z,2.00
2022-09-15T03:44:48.566Z,2.10
2022-09-15T03:47:15.105Z,2.03
2022-09-15T03:49:41.601Z,2.40
2022-09-15T03:52:08.247Z,2.30
2022-09-15T03:54:35.539Z,2.20
2022-09-15T03:57:02.350Z,2.38
2022-09-15T03:59:28.862Z,2.72
2022-09-15T04:01:55.401Z,2.42
2022-09-15T04:04:21.926Z,2.05
2022-09-15T04:06:48.410Z,2.60
2022-09-15T04:09:15.240Z,2.70
2022-09-15T04:11:41.730Z,2.60
2022-09-15T04:14:08.319Z,2.40
2022-09-15T04:16:34.982Z,2.50
2022-09-15T04:19:01.741Z,2.63
2022-09-15T04:21:28.236Z,2.60
2022-09-15T04:23:54.929Z,2.55
2022-09-15T04:26:31.353Z,2.83
2022-09-15T04:29:03.687Z,2.33
2022-09-15T04:31:30.970Z,2.33
2022-09-15T04:33:57.582Z,2.60
2022-09-15T04:36:27.430Z,2.90
2022-09-15T04:38:53.958Z,2.63
2022-09-15T04:41:21.014Z,2.80
2022-09-15T04:43:47.664Z,2.80
2022-09-15T04:46:15.115Z,2.72
2022-09-15T04:48:42.105Z,2.88
2022-09-15T04:51:12.175Z,2.78
2022-09-15T04:53:38.853Z,2.67
2022-09-15T04:56:07.797Z,2.90
2022-09-15T04:58:44.807Z,2.50
2022-09-15T05:01:17.012Z,2.33
2022-09-15T05:03:44.252Z,2.27
2022-09-15T05:06:13.488Z,3.00
2022-09-15T05:08:40.642Z,2.25
2022-09-15T05:11:12.289Z,2.55
2022-09-15T05:13:39.752Z,2.60
2022-09-15T05:16:15.332Z,2.60
2022-09-15T05:18:44.145Z,2.47
2022-09-15T05:21:13.260Z,2.58
2022-09-15T05:23:39.880Z,2.50
2022-09-15T05:26:08.942Z,2.15
2022-09-15T05:28:37.535Z,2.35
2022-09-15T05:31:09.930Z,2.60
2022-09-15T05:33:36.577Z,2.10
2022-09-15T05:36:03.535Z,2.15
2022-09-15T05:38:31.842Z,2.28
2022-09-15T05:41:03.777Z,2.30
2022-09-15T05:43:32.172Z,2.10
2022-09-15T05:45:58.848Z,2.05
2022-09-15T05:48:25.507Z,1.73
2022-09-15T05:50:54.657Z,1.67
2022-09-15T05:53:22.185Z,1.92
2022-09-15T05:55:49.162Z,1.85
2022-09-15T05:58:15.659Z,1.90
2022-09-15T06:00:42.519Z,2.00
2022-09-15T06:03:14.629Z,1.83
2022-09-15T06:05:41.709Z,1.73
2022-09-15T06:08:08.467Z,1.95
2022-09-15T06:10:35.090Z,1.65
2022-09-15T06:13:01.662Z,1.83
2022-09-15T06:15:28.127Z,1.70
2022-09-15T06:17:54.696Z,1.50
2022-09-15T06:20:21.452Z,1.63
2022-09-15T06:22:47.950Z,1.95
2022-09-15T06:25:15.224Z,2.25
2022-09-15T06:27:42.182Z,1.58
2022-09-15T06:30:10.766Z,2.13
2022-09-15T06:32:37.304Z,1.80
2022-09-15T06:35:07.196Z,1.95
2022-09-15T06:37:34.433Z,1.50
2022-09-15T06:40:01.875Z,1.95
2022-09-15T06:42:28.457Z,1.67
2022-09-15T06:44:54.962Z,1.55
2022-09-15T06:47:21.451Z,1.73
2022-09-15T06:49:47.924Z,1.77
2022-09-15T06:52:14.424Z,1.48
2022-09-15T06:54:40.947Z,1.70
2022-09-15T06:57:07.462Z,1.20
2022-09-15T06:59:33.930Z,1.88
2022-09-15T07:02:04.711Z,1.70
2022-09-15T07:04:31.712Z,1.73
2022-09-15T07:06:58.205Z,1.83
2022-09-15T07:09:24.682Z,1.70
2022-09-15T07:11:51.226Z,1.65
2022-09-15T07:14:17.718Z,1.77
2022-09-15T07:16:44.288Z,2.05
2022-09-15T07:19:11.089Z,2.30
2022-09-15T07:21:37.638Z,1.80
2022-09-15T07:24:07.343Z,1.88
2022-09-15T07:26:34.771Z,2.13
2022-09-15T07:29:04.598Z,1.65
2022-09-15T07:31:33.562Z,1.80
2022-09-15T07:34:01.137Z,1.60
2022-09-15T07:36:28.195Z,1.63
2022-09-15T07:38:54.721Z,1.33
2022-09-15T07:41:23.834Z,1.63
2022-09-15T07:43:52.619Z,1.48
2022-09-15T07:46:20.975Z,1.58
2022-09-15T07:48:49.620Z,1.75
2022-09-15T07:51:17.056Z,1.30
2022-09-15T07:53:45.549Z,1.10
2022-09-15T07:56:12.236Z,1.35
2022-09-15T07:58:39.020Z,1.23
2022-09-15T08:01:07.888Z,1.30
2022-09-15T08:03:34.445Z,1.05
2022-09-15T08:06:02.390Z,1.40
2022-09-15T08:08:30.101Z,1.40
2022-09-15T08:10:56.858Z,1.10
2022-09-15T08:13:24.382Z,0.95
2022-09-15T08:15:51.191Z,1.02
2022-09-15T08:18:17.992Z,1.33
2022-09-15T08:20:44.703Z,1.17
2022-09-15T08:23:11.631Z,1.73
2022-09-15T08:25:39.627Z,1.60
2022-09-15T08:28:06.318Z,1.20
2022-09-15T08:30:32.790Z,1.17
2022-09-15T08:32:59.273Z,1.05
2022-09-15T08:35:25.771Z,1.35
2022-09-15T08:37:54.185Z,1.00
2022-09-15T08:40:35.713Z,1.60
2022-09-15T08:43:15.107Z,1.38
2022-09-15T08:45:59.082Z,1.30
2022-09-15T08:48:31.995Z,1.35
2022-09-15T08:51:04.074Z,1.35
2022-09-15T08:53:38.637Z,1.07
2022-09-15T08:56:15.078Z,1.05
2022-09-15T08:58:41.573Z,1.40
2022-09-15T09:01:10.874Z,1.60
2022-09-15T09:04:00.718Z,1.08
2022-09-15T09:06:39.370Z,1.02
2022-09-15T09:09:19.615Z,1.63
2022-09-15T09:12:23.559Z,1.10
2022-09-15T09:15:20.033Z,0.90
2022-09-15T09:18:11.441Z,1.60
2022-09-15T09:20:37.854Z,1.30
2022-09-15T09:23:09.598Z,1.00
2022-09-15T09:25:36.758Z,1.65
2022-09-15T09:28:05.942Z,1.65
2022-09-15T09:30:34.941Z,1.27
2022-09-15T09:33:20.109Z,1.40
2022-09-15T09:35:50.107Z,1.17
2022-09-15T09:38:22.667Z,1.33
2022-09-15T09:40:49.773Z,1.40
2022-09-15T09:43:16.733Z,1.20
2022-09-15T09:45:43.310Z,1.10
2022-09-15T09:48:21.322Z,1.05
2022-09-15T09:50:49.650Z,1.17
2022-09-15T09:53:28.698Z,1.15
2022-09-15T09:56:16.220Z,1.17
2022-09-15T09:58:43.107Z,1.02
2022-09-15T10:01:12.639Z,1.17
2022-09-15T10:03:39.188Z,1.10
2022-09-15T10:06:15.789Z,1.60
2022-09-15T10:09:06.371Z,0.90
2022-09-15T10:11:49.838Z,0.90
2022-09-15T10:14:37.945Z,1.27
2022-09-15T10:17:20.974Z,0.98
2022-09-15T10:19:55.186Z,0.88
2022-09-15T10:22:36.307Z,1.02
2022-09-15T10:25:19.327Z,1.30
2022-09-15T10:28:03.172Z,0.98
2022-09-15T10:30:29.624Z,1.33
2022-09-15T10:32:57.953Z,1.40
2022-09-15T10:35:24.688Z,0.95
2022-09-15T10:38:10.637Z,1.30
2022-09-15T10:40:51.660Z,0.98
2022-09-15T10:43:55.362Z,1.13
2022-09-15T10:49:05.189Z,0.93
2022-09-15T10:51:46.948Z,0.95
2022-09-15T10:54:13.392Z,1.02
2022-09-15T10:57:01.732Z,1.00
2022-09-15T10:59:43.455Z,1.05
2022-09-15T11:02:48.090Z,1.40
2022-09-15T11:05:36.375Z,1.20
2022-09-15T11:08:08.669Z,0.82
2022-09-15T11:10:50.491Z,1.05
2022-09-15T11:13:50.333Z,1.40
2022-09-15T11:16:44.063Z,1.10
2022-09-15T11:19:24.231Z,1.35
2022-09-15T11:21:56.136Z,1.20
2022-09-15T11:24:31.704Z,0.98
2022-09-15T11:27:11.391Z,0.88
2022-09-15T11:29:43.784Z,1.00
2022-09-15T11:32:17.857Z,1.15
2022-09-15T11:34:56.953Z,0.90
2022-09-15T11:37:43.009Z,0.88
2022-09-15T11:40:25.330Z,1.00
2022-09-15T11:43:14.328Z,0.90
2022-09-15T11:45:49.806Z,1.20
2022-09-15T11:48:24.022Z,0.98
2022-09-15T11:50:54.671Z,1.10
2022-09-15T11:53:33.054Z,1.17
2022-09-15T11:56:32.048Z,1.20
2022-09-15T11:59:22.988Z,1.15
2022-09-15T12:02:14.381Z,1.00
2022-09-15T12:05:07.283Z,0.93
2022-09-15T12:07:42.024Z,0.90
2022-09-15T12:10:40.269Z,1.10
2022-09-15T12:13:15.437Z,1.10
2022-09-15T12:15:43.369Z,0.93
2022-09-15T12:18:42.845Z,0.98
2022-09-15T12:21:22.853Z,0.90
2022-09-15T12:24:07.974Z,1.15
2022-09-15T12:26:35.083Z,1.27
2022-09-15T12:29:04.560Z,1.02
2022-09-15T12:31:33.842Z,0.90
2022-09-15T12:34:03.679Z,1.10
2022-09-15T12:36:37.578Z,0.88
2022-09-15T12:39:20.901Z,0.90
2022-09-15T12:41:53.450Z,1.00
2022-09-15T12:44:41.466Z,1.00
2022-09-15T12:47:37.944Z,1.02
2022-09-15T12:50:16.700Z,0.98
2022-09-15T12:52:48.713Z,0.90
2022-09-15T12:55:22.642Z,0.97
2022-09-15T12:58:10.721Z,1.27
2022-09-15T13:01:00.699Z,1.20
2022-09-15T13:06:12.958Z,1.30
2022-09-15T13:08:45.437Z,1.30
2022-09-15T13:11:37.405Z,1.35
2022-09-15T13:14:04.220Z,0.98
2022-09-15T13:16:33.485Z,1.35
2022-09-15T13:19:25.306Z,1.25
2022-09-15T13:22:12.006Z,0.85
2022-09-15T13:24:50.358Z,0.80
2022-09-15T13:27:21.770Z,1.02
2022-09-15T13:29:53.758Z,0.80
2022-09-15T13:32:36.545Z,0.93
2022-09-15T13:35:14.946Z,0.95
2022-09-15T13:38:25.013Z,1.05
2022-09-15T13:41:38.529Z,0.90
2022-09-15T13:44:29.673Z,0.80
2022-09-15T13:47:05.192Z,0.98
2022-09-15T13:49:46.633Z,0.80
2022-09-15T13:52:51.035Z,1.00
2022-09-15T13:55:26.421Z,0.80
2022-09-15T14:01:06.863Z,0.57
2022-09-15T14:03:45.568Z,0.70
2022-09-15T14:06:17.627Z,0.70
2022-09-15T14:08:48.753Z,1.48
2022-09-15T14:11:17.100Z,1.67
2022-09-15T14:13:47.588Z,1.20
2022-09-15T14:16:30.186Z,0.95
2022-09-15T14:18:58.613Z,1.10
2022-09-15T14:21:28.623Z,0.90
2022-09-15T14:24:04.305Z,0.60
2022-09-15T14:26:35.553Z,0.60
2022-09-15T14:29:05.809Z,1.10
2022-09-15T14:31:39.072Z,0.95
2022-09-15T14:34:14.633Z,1.00
2022-09-15T14:36:41.584Z,0.85
2022-09-15T14:39:23.580Z,0.73
2022-09-15T14:41:51.181Z,1.02
2022-09-15T14:47:28.226Z,1.10
2022-09-15T14:50:09.754Z,0.80
2022-09-15T14:52:41.411Z,1.02
2022-09-15T14:55:22.675Z,0.98
2022-09-15T14:58:02.325Z,0.80
2022-09-15T15:00:34.609Z,1.02
2022-09-15T15:03:22.320Z,0.63
2022-09-15T15:06:02.639Z,1.02
2022-09-15T15:08:37.969Z,0.90
2022-09-15T15:11:08.613Z,0.75
2022-09-15T15:13:36.551Z,0.80
2022-09-15T15:16:12.309Z,0.60
2022-09-15T15:18:41.138Z,0.60
2022-09-15T15:21:36.194Z,0.73
2022-09-15T15:24:10.149Z,0.60
2022-09-15T15:26:38.763Z,0.70
2022-09-15T15:29:09.166Z,0.90
2022-09-15T15:31:40.139Z,0.75
2022-09-15T15:34:24.628Z,0.80
2022-09-15T15:36:51.185Z,0.68
2022-09-15T15:39:25.260Z,0.90
2022-09-15T15:42:02.036Z,1.02
2022-09-15T15:44:30.238Z,0.80
2022-09-15T15:47:01.752Z,1.10
2022-09-15T15:49:30.634Z,0.85
2022-09-15T15:51:59.395Z,1.00
2022-09-15T15:54:26.586Z,0.88
2022-09-15T15:56:53.813Z,1.00
2022-09-15T15:59:21.182Z,1.00
2022-09-15T16:01:51.457Z,0.70
2022-09-15T16:04:17.989Z,0.88
2022-09-15T16:06:45.407Z,0.90
2022-09-15T16:09:17.369Z,0.93
2022-09-15T16:11:43.920Z,0.70
2022-09-15T16:14:13.891Z,0.65
2022-09-15T16:16:40.911Z,0.68
2022-09-15T16:19:08.535Z,0.70
2022-09-15T16:21:38.643Z,0.70
2022-09-15T16:24:07.126Z,0.80
2022-09-15T16:26:35.646Z,0.65
2022-09-15T16:29:02.206Z,0.55
2022-09-15T16:31:28.846Z,0.40
2022-09-15T16:33:55.377Z,0.40
2022-09-15T16:36:22.099Z,0.32
2022-09-15T16:38:48.629Z,0.45
2022-09-15T16:41:20.398Z,0.50
2022-09-15T16:43:47.607Z,0.50
2022-09-15T16:46:15.089Z,0.40
2022-09-15T16:48:43.315Z,0.40
2022-09-15T16:51:31.650Z,0.38
2022-09-15T16:53:58.604Z,0.43
2022-09-15T16:56:25.436Z,0.43
2022-09-15T16:58:57.453Z,0.55
2022-09-15T17:01:26.367Z,0.45
2022-09-15T17:03:52.850Z,0.65
2022-09-15T17:06:19.481Z,0.60
2022-09-15T17:08:46.051Z,0.60
2022-09-15T17:11:16.703Z,0.80
2022-09-15T17:13:43.438Z,0.50
2022-09-15T17:16:19.480Z,0.52
2022-09-15T17:18:46.862Z,0.50
2022-09-15T17:21:15.014Z,0.55
2022-09-15T17:23:45.106Z,0.80
2022-09-15T17:26:16.855Z,0.70
2022-09-15T17:28:43.690Z,0.57
2022-09-15T17:31:16.207Z,0.80
2022-09-15T17:33:43.513Z,0.73
2022-09-15T17:36:10.606Z,0.65
2022-09-15T17:38:37.185Z,0.90
2022-09-15T17:41:03.993Z,0.70
2022-09-15T17:43:31.336Z,0.80
2022-09-15T17:45:58.328Z,0.90
2022-09-15T17:48:25.129Z,0.90
2022-09-15T17:50:52.383Z,0.75
2022-09-15T17:53:21.494Z,0.75
2022-09-15T17:55:48.795Z,0.80
2022-09-15T17:58:16.111Z,0.90
2022-09-15T18:00:44.393Z,0.95
2022-09-15T18:03:23.343Z,0.82
2022-09-15T18:05:50.944Z,0.75
2022-09-15T18:08:18.551Z,0.82
2022-09-15T18:10:45.581Z,0.60
2022-09-15T18:13:17.832Z,0.90
2022-09-15T18:15:44.600Z,1.00
2022-09-15T18:18:16.642Z,1.02
2022-09-15T18:20:43.962Z,0.88
2022-09-15T18:23:13.412Z,0.98
2022-09-15T18:25:39.928Z,0.80
2022-09-15T18:28:06.545Z,0.93
2022-09-15T18:30:40.685Z,0.65
2022-09-15T18:33:08.479Z,0.75
2022-09-15T18:35:35.094Z,0.70
2022-09-15T18:38:01.914Z,0.70
2022-09-15T18:40:28.441Z,1.20
2022-09-15T18:42:56.606Z,0.80
2022-09-15T18:45:23.143Z,0.80
2022-09-15T18:47:51.581Z,0.85
2022-09-15T18:50:20.583Z,0.85
2022-09-15T18:52:47.682Z,1.08
2022-09-15T18:55:17.716Z,0.80
2022-09-15T18:57:45.415Z,1.05
2022-09-15T19:00:18.507Z,1.05
2022-09-15T19:05:15.403Z,0.88
2022-09-15T19:07:43.593Z,1.00
2022-09-15T19:10:11.597Z,0.82
2022-09-15T19:12:38.838Z,0.85
2022-09-15T19:15:10.745Z,1.08
2022-09-15T19:17:38.626Z,1.27
2022-09-15T19:20:09.763Z,0.70
2022-09-15T19:22:36.763Z,0.80
2022-09-15T19:25:05.721Z,1.00
2022-09-15T19:27:32.736Z,0.93
2022-09-15T19:29:59.291Z,1.20
2022-09-15T19:32:25.859Z,1.02
2022-09-15T19:34:52.759Z,1.00
2022-09-15T19:37:21.053Z,0.70
2022-09-15T19:39:48.578Z,1.00
2022-09-15T19:44:47.988Z,0.82
2022-09-15T19:47:14.980Z,1.27
2022-09-15T19:49:41.520Z,0.85
2022-09-15T19:52:08.065Z,0.90
2022-09-15T19:54:34.718Z,1.17
2022-09-15T19:57:02.150Z,0.98
2022-09-15T19:59:31.691Z,0.75
2022-09-15T20:02:00.061Z,0.73
2022-09-15T20:04:27.872Z,0.88
2022-09-15T20:06:54.407Z,0.80
2022-09-15T20:09:20.913Z,0.93
2022-09-15T20:11:47.517Z,0.80
2022-09-15T20:14:14.121Z,1.27
2022-09-15T20:16:41.265Z,1.00
2022-09-15T20:19:07.983Z,1.30
2022-09-15T20:21:52.003Z,0.65
2022-09-15T20:24:19.903Z,1.00
2022-09-15T20:26:46.413Z,0.65
2022-09-15T20:29:13.523Z,0.95
2022-09-15T20:31:40.751Z,1.00
2022-09-15T20:34:07.423Z,0.68
2022-09-15T20:36:36.554Z,0.95
2022-09-15T20:39:06.315Z,0.90
2022-09-15T20:41:32.814Z,0.63
2022-09-15T20:44:00.254Z,0.95
2022-09-15T20:46:28.901Z,1.10
2022-09-15T20:48:55.463Z,0.80
2022-09-15T20:51:24.138Z,0.77
2022-09-15T20:53:54.298Z,0.80
2022-09-15T20:56:25.011Z,1.00
2022-09-15T20:58:56.087Z,0.80
2022-09-15T21:01:28.219Z,0.90
2022-09-15T21:03:55.500Z,0.77
2022-09-15T21:06:24.368Z,1.10
2022-09-15T21:08:51.382Z,1.15
2022-09-15T21:11:20.294Z,0.95
2022-09-15T21:13:48.174Z,0.80
2022-09-15T21:16:20.516Z,1.02
2022-09-15T21:18:48.376Z,1.00
2022-09-15T21:21:30.217Z,0.98
2022-09-15T21:24:00.404Z,0.90
2022-09-15T21:26:29.147Z,0.80
2022-09-15T21:28:57.282Z,1.02
2022-09-15T21:31:30.004Z,0.90
2022-09-15T21:33:58.265Z,1.55
2022-09-15T21:36:27.638Z,1.05
2022-09-15T21:38:56.463Z,0.80
2022-09-15T21:41:26.249Z,1.25
2022-09-15T21:43:54.911Z,1.10
2022-09-15T21:46:23.664Z,1.33
2022-09-15T21:48:50.593Z,0.90
2022-09-15T21:51:23.988Z,1.10
2022-09-15T21:53:53.530Z,0.85
2022-09-15T21:56:20.440Z,1.00
2022-09-15T21:58:46.964Z,1.00
2022-09-15T22:01:22.093Z,1.23
2022-09-15T22:03:51.562Z,0.85
2022-09-15T22:06:20.173Z,1.02
2022-09-15T22:08:46.866Z,1.10
2022-09-15T22:11:13.852Z,0.98
2022-09-15T22:13:43.050Z,1.17
2022-09-15T22:16:18.328Z,0.95
2022-09-15T22:18:45.327Z,0.70
2022-09-15T22:21:18.023Z,0.90
2022-09-15T22:23:46.381Z,1.08
2022-09-15T22:26:21.758Z,1.23
2022-09-15T22:28:48.870Z,0.80
2022-09-15T22:31:18.146Z,0.90
2022-09-15T22:33:45.006Z,0.80
2022-09-15T22:36:13.771Z,1.10
2022-09-15T22:38:40.971Z,0.60
2022-09-15T22:41:14.817Z,0.82
2022-09-15T22:43:43.477Z,1.10
2022-09-15T22:46:11.375Z,1.10
2022-09-15T22:48:43.367Z,1.10
2022-09-15T22:51:10.742Z,1.13
2022-09-15T22:53:37.269Z,1.10
2022-09-15T22:56:21.946Z,0.93
2022-09-15T22:58:49.653Z,0.95
2022-09-15T23:01:18.582Z,0.95
2022-09-15T23:03:50.037Z,0.75
2022-09-15T23:06:16.572Z,0.95
2022-09-15T23:08:43.102Z,0.80
2022-09-15T23:11:12.375Z,1.00
2022-09-15T23:13:40.364Z,1.00
2022-09-15T23:16:07.894Z,0.85
2022-09-15T23:18:34.986Z,0.90
2022-09-15T23:21:07.812Z,0.95
2022-09-15T23:23:36.156Z,0.85
2022-09-15T23:26:04.414Z,0.60
2022-09-15T23:28:31.306Z,1.30
2022-09-15T23:30:59.375Z,0.85
2022-09-15T23:33:27.852Z,0.90
2022-09-15T23:35:54.409Z,0.90
2022-09-15T23:38:21.814Z,0.80
2022-09-15T23:40:50.599Z,0.80
2022-09-15T23:43:18.102Z,1.20
2022-09-15T23:45:45.415Z,0.80
2022-09-15T23:48:12.416Z,0.90
2022-09-15T23:50:39.577Z,0.90
2022-09-15T23:53:06.878Z,0.60
2022-09-15T23:55:33.742Z,0.70
2022-09-15T23:58:00.292Z,0.73
